createdAt,value
2022-09-29T00:01:48.737Z,2.80
2022-09-29T00:04:17.772Z,3.43
2022-09-29T00:06:45.195Z,2.43
2022-09-29T00:09:12.623Z,3.17
2022-09-29T00:11:40.064Z,2.70
2022-09-29T00:14:07.494Z,2.73
2022-09-29T00:16:35.042Z,4.47
2022-09-29T00:19:03.064Z,3.00
2022-09-29T00:21:31.856Z,2.87
2022-09-29T00:24:01.772Z,3.63
2022-09-29T00:26:29.188Z,3.87
2022-09-29T00:28:57.858Z,2.77
2022-09-29T00:31:26.532Z,2.53
2022-09-29T00:33:54.019Z,2.90
2022-09-29T00:36:22.231Z,3.93
2022-09-29T00:38:52.620Z,3.67
2022-09-29T00:41:21.309Z,3.33
2022-09-29T00:43:53.222Z,4.83
2022-09-29T00:46:24.508Z,3.57
2022-09-29T00:48:52.276Z,4.17
2022-09-29T00:51:20.480Z,4.43
2022-09-29T00:53:49.027Z,3.10
2022-09-29T00:56:18.991Z,3.47
2022-09-29T00:58:54.636Z,3.73
2022-09-29T01:01:22.497Z,4.80
2022-09-29T01:03:50.441Z,3.57
2022-09-29T01:06:19.799Z,3.97
2022-09-29T01:08:51.752Z,4.10
2022-09-29T01:11:22.517Z,3.80
2022-09-29T01:13:50.338Z,3.90
2022-09-29T01:16:17.837Z,3.87
2022-09-29T01:18:45.796Z,3.13
2022-09-29T01:21:18.339Z,2.53
2022-09-29T01:24:04.644Z,3.50
2022-09-29T01:26:51.953Z,3.50
2022-09-29T01:29:39.209Z,2.77
2022-09-29T01:32:10.337Z,4.70
2022-09-29T01:34:41.263Z,3.27
2022-09-29T01:37:13.430Z,2.93
2022-09-29T01:39:42.977Z,3.33
2022-09-29T01:42:13.179Z,2.43
2022-09-29T01:44:43.376Z,3.70
2022-09-29T01:47:13.671Z,3.67
2022-09-29T01:49:42.389Z,3.60
2022-09-29T01:52:11.954Z,3.60
2022-09-29T01:54:44.925Z,3.67
2022-09-29T01:57:15.936Z,3.47
2022-09-29T01:59:45.411Z,4.13
2022-09-29T02:02:17.064Z,3.67
2022-09-29T02:04:48.073Z,3.00
2022-09-29T02:07:17.877Z,4.83
2022-09-29T02:09:46.929Z,3.73
2022-09-29T02:12:15.833Z,2.80
2022-09-29T02:14:44.428Z,4.50
2022-09-29T02:17:13.649Z,3.17
2022-09-29T02:19:43.228Z,6.60
2022-09-29T02:22:10.727Z,4.53
2022-09-29T02:24:38.192Z,4.27
2022-09-29T02:27:06.007Z,2.60
2022-09-29T02:29:34.436Z,4.03
2022-09-29T02:32:02.897Z,3.93
2022-09-29T02:34:32.185Z,4.30
2022-09-29T02:37:03.623Z,4.07
2022-09-29T02:39:36.376Z,3.67
2022-09-29T02:42:14.361Z,2.50
2022-09-29T02:44:51.943Z,3.80
2022-09-29T02:47:27.281Z,5.20
2022-09-29T02:50:06.805Z,3.70
2022-09-29T02:52:42.935Z,2.93
2022-09-29T02:55:14.112Z,2.83
2022-09-29T02:57:46.780Z,2.87
2022-09-29T03:00:15.213Z,3.10
2022-09-29T03:02:43.366Z,5.10
2022-09-29T03:05:12.199Z,6.07
2022-09-29T03:07:40.993Z,4.07
2022-09-29T03:10:09.248Z,3.37
2022-09-29T03:12:36.974Z,3.90
2022-09-29T03:15:04.971Z,4.70
2022-09-29T03:17:32.635Z,4.20
2022-09-29T03:20:00.136Z,4.63
2022-09-29T03:22:27.563Z,4.47
2022-09-29T03:24:59.269Z,5.27
2022-09-29T03:27:26.696Z,5.57
2022-09-29T03:29:54.115Z,4.50
2022-09-29T03:32:21.654Z,6.13
2022-09-29T03:34:49.222Z,5.00
2022-09-29T03:37:16.638Z,4.33
2022-09-29T03:39:44.067Z,4.90
2022-09-29T03:42:12.956Z,3.97
2022-09-29T03:44:40.384Z,4.43
2022-09-29T03:47:07.795Z,8.07
2022-09-29T03:49:35.599Z,12.53
2022-09-29T03:52:03.118Z,8.43
2022-09-29T03:54:30.549Z,11.50
2022-09-29T03:56:57.963Z,15.80
2022-09-29T03:59:26.769Z,14.80
2022-09-29T04:01:54.225Z,13.40
2022-09-29T04:04:21.674Z,16.10
2022-09-29T04:06:49.174Z,17.97
2022-09-29T04:09:16.692Z,13.20
2022-09-29T04:11:44.178Z,9.00
2022-09-29T04:14:11.603Z,7.77
2022-09-29T04:16:40.405Z,7.57
2022-09-29T04:19:07.851Z,15.20
2022-09-29T04:21:35.535Z,8.50
2022-09-29T04:24:03.139Z,6.97
2022-09-29T04:26:30.557Z,5.77
2022-09-29T04:28:58.002Z,5.50
2022-09-29T04:31:25.495Z,4.23
2022-09-29T04:33:54.281Z,6.20
2022-09-29T04:36:21.706Z,4.50
2022-09-29T04:38:51.463Z,6.27
2022-09-29T04:41:18.900Z,6.03
2022-09-29T04:43:46.332Z,12.43
2022-09-29T04:46:14.585Z,11.27
2022-09-29T04:48:42.081Z,6.83
2022-09-29T04:51:11.479Z,7.50
2022-09-29T04:53:38.936Z,7.07
2022-09-29T04:56:07.215Z,4.90
2022-09-29T04:58:34.830Z,5.80
2022-09-29T05:01:06.299Z,6.20
2022-09-29T05:03:33.792Z,6.50
2022-09-29T05:06:01.207Z,6.53
2022-09-29T05:08:29.982Z,5.63
2022-09-29T05:10:57.387Z,5.80
2022-09-29T05:13:24.900Z,6.20
2022-09-29T05:15:55.935Z,6.83
2022-09-29T05:18:23.512Z,4.73
2022-09-29T05:21:15.839Z,7.53
2022-09-29T05:23:42.081Z,6.20
2022-09-29T05:26:09.934Z,4.30
2022-09-29T05:28:38.149Z,8.93
2022-09-29T05:31:06.996Z,7.00
2022-09-29T05:33:34.799Z,5.60
2022-09-29T05:36:02.578Z,5.80
2022-09-29T05:38:30.025Z,4.80
2022-09-29T05:40:58.947Z,4.70
2022-09-29T05:43:26.432Z,5.13
2022-09-29T05:45:53.883Z,5.00
2022-09-29T05:48:21.636Z,5.33
2022-09-29T05:50:49.046Z,4.53
2022-09-29T05:53:16.460Z,5.17
2022-09-29T05:55:43.924Z,7.20
2022-09-29T05:58:12.693Z,5.53
2022-09-29T06:00:40.163Z,5.70
2022-09-29T06:03:07.698Z,4.03
2022-09-29T06:05:39.416Z,4.30
2022-09-29T06:08:06.816Z,6.27
2022-09-29T06:10:34.544Z,6.40
2022-09-29T06:13:03.307Z,5.67
2022-09-29T06:15:32.069Z,5.67
2022-09-29T06:18:01.027Z,7.40
2022-09-29T06:20:28.855Z,8.30
2022-09-29T06:22:56.473Z,5.47
2022-09-29T06:25:24.172Z,6.03
2022-09-29T06:27:52.453Z,6.70
2022-09-29T06:30:19.873Z,6.63
2022-09-29T06:32:48.816Z,7.73
2022-09-29T06:35:33.848Z,7.03
2022-09-29T06:38:02.642Z,6.23
2022-09-29T06:40:30.093Z,5.17
2022-09-29T06:42:57.591Z,5.57
2022-09-29T06:45:24.996Z,6.07
2022-09-29T06:47:58.443Z,6.00
2022-09-29T06:50:26.226Z,5.63
2022-09-29T06:53:02.825Z,5.33
2022-09-29T06:55:32.014Z,6.57
2022-09-29T06:58:03.694Z,7.63
2022-09-29T07:00:32.826Z,5.93
2022-09-29T07:03:01.868Z,4.37
2022-09-29T07:05:29.289Z,4.80
2022-09-29T07:08:00.912Z,7.30
2022-09-29T07:10:28.849Z,6.20
2022-09-29T07:12:56.353Z,7.83
2022-09-29T07:15:31.335Z,6.37
2022-09-29T07:17:59.233Z,7.50
2022-09-29T07:20:28.667Z,5.10
2022-09-29T07:22:56.281Z,4.80
2022-09-29T07:25:50.103Z,4.93
2022-09-29T07:28:11.722Z,3.87
2022-09-29T07:30:40.914Z,4.70
2022-09-29T07:33:08.537Z,4.63
2022-09-29T07:35:39.916Z,5.30
2022-09-29T07:38:07.648Z,5.93
2022-09-29T07:40:35.120Z,4.93
2022-09-29T07:43:02.614Z,5.60
2022-09-29T07:45:30.984Z,3.77
2022-09-29T07:47:58.483Z,3.53
2022-09-29T07:50:26.051Z,4.37
2022-09-29T07:52:54.806Z,4.63
2022-09-29T07:55:22.897Z,2.93
2022-09-29T07:57:50.971Z,3.70
2022-09-29T08:00:18.449Z,4.60
2022-09-29T08:02:46.140Z,4.53
2022-09-29T08:05:13.762Z,3.90
2022-09-29T08:07:41.211Z,3.03
2022-09-29T08:10:16.887Z,3.20
2022-09-29T08:12:45.185Z,4.73
2022-09-29T08:15:12.705Z,4.90
2022-09-29T08:17:40.111Z,2.57
2022-09-29T08:20:08.322Z,3.50
2022-09-29T08:22:35.771Z,3.10
2022-09-29T08:25:03.641Z,4.77
2022-09-29T08:27:33.773Z,3.47
2022-09-29T08:30:02.120Z,4.40
2022-09-29T08:32:29.529Z,4.33
2022-09-29T08:34:56.961Z,3.70
2022-09-29T08:37:24.433Z,3.30
2022-09-29T08:39:51.876Z,3.60
2022-09-29T08:42:22.185Z,2.97
2022-09-29T08:44:56.493Z,4.93
2022-09-29T08:47:42.840Z,4.00
2022-09-29T08:50:15.305Z,2.33
2022-09-29T08:52:51.003Z,2.53
2022-09-29T08:55:26.811Z,5.83
2022-09-29T08:57:57.577Z,3.87
2022-09-29T09:00:31.079Z,4.73
2022-09-29T09:03:05.062Z,4.13
2022-09-29T09:05:53.516Z,2.60
2022-09-29T09:08:28.244Z,3.50
2022-09-29T09:11:02.701Z,3.60
2022-09-29T09:13:36.111Z,2.43
2022-09-29T09:16:21.510Z,1.70
2022-09-29T09:19:05.161Z,4.27
2022-09-29T09:21:37.621Z,3.07
2022-09-29T09:24:07.503Z,2.33
2022-09-29T09:26:37.542Z,4.70
2022-09-29T09:29:06.704Z,2.23
2022-09-29T09:31:40.441Z,2.53
2022-09-29T09:34:11.735Z,3.10
2022-09-29T09:36:42.363Z,2.00
2022-09-29T09:39:14.527Z,2.60
2022-09-29T09:41:43.166Z,2.83
2022-09-29T09:44:13.853Z,2.60
2022-09-29T09:46:44.860Z,4.63
2022-09-29T09:49:16.090Z,2.70
2022-09-29T09:51:46.665Z,1.67
2022-09-29T09:54:17.152Z,2.47
2022-09-29T09:56:52.223Z,1.47
2022-09-29T09:59:25.760Z,1.90
2022-09-29T10:01:55.598Z,3.53
2022-09-29T10:04:24.538Z,1.47
2022-09-29T10:06:52.137Z,1.70
2022-09-29T10:09:20.466Z,2.20
2022-09-29T10:11:48.205Z,2.30
2022-09-29T10:14:18.078Z,2.77
2022-09-29T10:16:48.717Z,2.13
2022-09-29T10:19:21.713Z,3.23
2022-09-29T10:21:49.901Z,2.00
2022-09-29T10:24:24.567Z,3.37
2022-09-29T10:26:53.817Z,2.37
2022-09-29T10:29:24.646Z,1.83
2022-09-29T10:32:00.103Z,2.27
2022-09-29T10:34:29.254Z,1.93
2022-09-29T10:36:58.326Z,3.87
2022-09-29T10:39:32.797Z,2.10
2022-09-29T10:42:00.713Z,1.50
2022-09-29T10:44:31.810Z,1.60
2022-09-29T10:46:59.736Z,2.57
2022-09-29T10:49:29.095Z,2.37
2022-09-29T10:52:00.565Z,2.40
2022-09-29T10:54:28.625Z,2.50
2022-09-29T10:56:57.524Z,1.87
2022-09-29T10:59:25.911Z,3.10
2022-09-29T11:01:54.929Z,1.57
2022-09-29T11:04:24.033Z,2.43
2022-09-29T11:06:51.979Z,2.13
2022-09-29T11:09:31.097Z,3.07
2022-09-29T11:12:02.227Z,1.10
2022-09-29T11:14:32.516Z,1.60
2022-09-29T11:17:01.175Z,2.77
2022-09-29T11:19:30.209Z,2.10
2022-09-29T11:22:21.625Z,3.23
2022-09-29T11:25:07.905Z,3.17
2022-09-29T11:27:45.220Z,2.70
2022-09-29T11:30:15.492Z,4.33
2022-09-29T11:32:53.937Z,2.93
2022-09-29T11:35:33.746Z,2.00
2022-09-29T11:38:06.918Z,2.43
2022-09-29T11:40:41.764Z,2.80
2022-09-29T11:43:20.924Z,1.20
2022-09-29T11:45:55.406Z,2.20
2022-09-29T11:48:30.747Z,1.70
2022-09-29T11:51:01.446Z,3.67
2022-09-29T11:53:45.145Z,3.70
2022-09-29T11:56:18.173Z,1.37
2022-09-29T11:58:56.808Z,1.83
2022-09-29T12:01:29.602Z,1.13
2022-09-29T12:04:09.778Z,2.27
2022-09-29T12:06:49.390Z,1.23
2022-09-29T12:09:24.414Z,0.87
2022-09-29T12:12:18.892Z,2.17
2022-09-29T12:15:00.269Z,1.63
2022-09-29T12:17:31.180Z,1.40
2022-09-29T12:20:02.521Z,1.37
2022-09-29T12:22:33.178Z,1.70
2022-09-29T12:25:03.779Z,3.03
2022-09-29T12:27:34.391Z,1.27
2022-09-29T12:30:05.769Z,1.57
2022-09-29T12:32:35.486Z,2.80
2022-09-29T12:35:05.593Z,1.23
2022-09-29T12:37:35.389Z,1.87
2022-09-29T12:40:06.834Z,1.83
2022-09-29T12:42:39.840Z,1.40
2022-09-29T12:45:12.916Z,5.57
2022-09-29T12:47:47.225Z,1.37
2022-09-29T12:50:18.915Z,1.23
2022-09-29T12:52:49.467Z,2.53
2022-09-29T12:55:20.373Z,2.53
2022-09-29T12:57:48.967Z,3.40
2022-09-29T13:00:19.248Z,1.30
2022-09-29T13:03:01.866Z,2.30
2022-09-29T13:05:36.252Z,1.37
2022-09-29T13:08:19.023Z,1.00
2022-09-29T13:10:53.359Z,3.00
2022-09-29T13:13:35.701Z,2.20
2022-09-29T13:16:06.782Z,3.57
2022-09-29T13:18:54.241Z,2.23
2022-09-29T13:21:35.074Z,1.30
2022-09-29T13:24:10.647Z,3.57
2022-09-29T13:26:53.478Z,1.97
2022-09-29T13:29:23.717Z,0.93
2022-09-29T13:31:51.946Z,1.63
2022-09-29T13:34:28.769Z,1.57
2022-09-29T13:37:06.305Z,1.53
2022-09-29T13:39:34.063Z,2.53
2022-09-29T13:42:26.509Z,1.37
2022-09-29T13:45:08.849Z,1.53
2022-09-29T13:47:45.972Z,1.00
2022-09-29T13:50:32.057Z,1.60
2022-09-29T13:53:14.653Z,2.23
2022-09-29T13:55:53.751Z,2.60
2022-09-29T13:58:24.574Z,2.80
2022-09-29T14:00:52.211Z,2.93
2022-09-29T14:03:28.802Z,2.60
2022-09-29T14:06:36.482Z,3.13
2022-09-29T14:09:04.998Z,1.60
2022-09-29T14:11:35.607Z,4.30
2022-09-29T14:14:05.176Z,2.53
2022-09-29T14:16:35.819Z,3.10
2022-09-29T14:19:07.450Z,2.20
2022-09-29T14:21:51.598Z,2.90
2022-09-29T14:24:37.637Z,3.77
2022-09-29T14:27:20.102Z,2.00
2022-09-29T14:29:49.963Z,3.40
2022-09-29T14:32:19.418Z,3.97
2022-09-29T14:34:47.317Z,1.00
2022-09-29T14:37:17.544Z,1.53
2022-09-29T14:40:05.293Z,2.73
2022-09-29T14:42:34.377Z,1.20
2022-09-29T14:45:21.016Z,2.30
2022-09-29T14:48:09.506Z,4.37
2022-09-29T14:50:59.505Z,1.63
2022-09-29T14:53:41.852Z,3.30
2022-09-29T14:56:15.470Z,2.00
2022-09-29T14:58:58.426Z,2.73
2022-09-29T15:01:27.829Z,5.43
2022-09-29T15:03:56.744Z,1.20
2022-09-29T15:06:25.638Z,12.70
2022-09-29T15:08:54.493Z,4.97
2022-09-29T15:11:26.646Z,3.83
2022-09-29T15:13:56.590Z,5.70
2022-09-29T15:16:28.469Z,7.70
2022-09-29T15:19:02.923Z,4.53
2022-09-29T15:21:37.820Z,3.50
2022-09-29T15:24:15.425Z,3.03
2022-09-29T15:26:43.500Z,1.10
2022-09-29T15:29:17.305Z,2.77
2022-09-29T15:31:47.937Z,4.93
2022-09-29T15:34:18.430Z,1.97
2022-09-29T15:36:47.586Z,3.97
2022-09-29T15:39:36.795Z,3.93
2022-09-29T15:42:07.010Z,6.37
2022-09-29T15:44:35.869Z,3.90
2022-09-29T15:47:03.331Z,2.50
2022-09-29T15:49:31.591Z,3.00
2022-09-29T15:51:59.945Z,2.73
2022-09-29T15:54:29.639Z,3.93
2022-09-29T15:57:14.036Z,6.33
2022-09-29T15:59:44.169Z,3.57
2022-09-29T16:02:17.885Z,4.00
2022-09-29T16:04:48.166Z,12.70
2022-09-29T16:07:20.216Z,22.57
2022-09-29T16:09:48.084Z,27.77
2022-09-29T16:12:17.837Z,35.47
2022-09-29T16:14:49.413Z,5.67
2022-09-29T16:17:17.713Z,12.77
2022-09-29T16:19:47.776Z,9.30
2022-09-29T16:22:18.976Z,10.47
2022-09-29T16:24:52.922Z,6.50
2022-09-29T16:27:35.617Z,5.00
2022-09-29T16:30:19.353Z,7.90
2022-09-29T16:32:46.763Z,14.43
2022-09-29T16:35:33.238Z,14.03
2022-09-29T16:38:00.671Z,9.03
2022-09-29T16:40:28.508Z,7.50
2022-09-29T16:42:56.041Z,2.57
2022-09-29T16:45:24.813Z,2.90
2022-09-29T16:47:52.438Z,1.70
2022-09-29T16:50:21.866Z,2.50
2022-09-29T16:52:50.157Z,2.07
2022-09-29T16:55:18.525Z,2.60
2022-09-29T16:57:51.703Z,3.50
2022-09-29T17:00:19.129Z,6.63
2022-09-29T17:02:48.221Z,4.97
2022-09-29T17:05:15.699Z,6.10
2022-09-29T17:07:43.329Z,7.33
2022-09-29T17:10:15.646Z,11.43
2022-09-29T17:12:43.298Z,6.53
2022-09-29T17:15:14.000Z,6.23
2022-09-29T17:17:43.445Z,1.30
2022-09-29T17:20:14.044Z,2.87
2022-09-29T17:22:41.804Z,1.10
2022-09-29T17:25:10.717Z,2.67
2022-09-29T17:27:56.199Z,2.40
2022-09-29T17:30:24.404Z,2.47
2022-09-29T17:32:53.693Z,2.27
2022-09-29T17:35:24.215Z,4.47
2022-09-29T17:37:51.669Z,5.87
2022-09-29T17:40:21.896Z,3.33
2022-09-29T17:42:49.464Z,3.97
2022-09-29T17:45:17.465Z,4.53
2022-09-29T17:47:45.447Z,5.27
2022-09-29T17:50:19.229Z,4.33
2022-09-29T17:52:48.132Z,4.27
2022-09-29T17:55:15.595Z,2.47
2022-09-29T17:57:43.434Z,2.33
2022-09-29T18:00:14.729Z,4.03
2022-09-29T18:02:42.212Z,3.63
2022-09-29T18:05:10.801Z,4.80
2022-09-29T18:07:38.268Z,9.37
2022-09-29T18:10:16.324Z,6.47
2022-09-29T18:12:43.781Z,7.07
2022-09-29T18:15:11.284Z,4.20
2022-09-29T18:17:38.802Z,2.60
2022-09-29T18:20:14.368Z,3.80
2022-09-29T18:22:41.811Z,2.73
2022-09-29T18:25:09.815Z,3.77
2022-09-29T18:27:39.260Z,2.27
2022-09-29T18:30:08.152Z,4.70
2022-09-29T18:32:35.560Z,2.30
2022-09-29T18:35:03.357Z,3.10
2022-09-29T18:37:30.761Z,3.17
2022-09-29T18:39:58.175Z,1.60
2022-09-29T18:42:26.689Z,2.50
2022-09-29T18:44:55.447Z,5.07
2022-09-29T18:47:23.141Z,2.00
2022-09-29T18:49:50.746Z,1.50
2022-09-29T18:52:18.240Z,1.60
2022-09-29T18:54:45.677Z,1.73
2022-09-29T18:57:13.644Z,2.53
2022-09-29T18:59:41.137Z,3.93
2022-09-29T19:02:12.985Z,2.10
2022-09-29T19:04:40.554Z,3.37
2022-09-29T19:07:12.179Z,4.10
2022-09-29T19:09:39.705Z,2.30
2022-09-29T19:12:09.311Z,1.40
2022-09-29T19:14:37.601Z,2.90
2022-09-29T19:17:05.553Z,1.70
2022-09-29T19:19:34.654Z,2.97
2022-09-29T19:22:02.258Z,1.70
2022-09-29T19:24:29.735Z,1.73
2022-09-29T19:26:57.177Z,3.90
2022-09-29T19:29:24.656Z,1.73
2022-09-29T19:31:52.381Z,3.17
2022-09-29T19:34:19.808Z,1.70
2022-09-29T19:36:48.548Z,2.10
2022-09-29T19:39:16.268Z,2.00
2022-09-29T19:41:43.757Z,2.67
2022-09-29T19:44:11.428Z,3.13
2022-09-29T19:46:38.954Z,3.43
2022-09-29T19:49:06.523Z,1.57
2022-09-29T19:51:52.846Z,4.03
2022-09-29T19:54:24.826Z,5.07
2022-09-29T19:56:53.775Z,1.90
2022-09-29T19:59:21.955Z,1.73
2022-09-29T20:01:51.053Z,4.60
2022-09-29T20:04:19.559Z,2.00
2022-09-29T20:06:47.046Z,2.97
2022-09-29T20:09:15.060Z,1.37
2022-09-29T20:11:46.907Z,2.97
2022-09-29T20:14:15.143Z,1.30
2022-09-29T20:16:45.354Z,1.93
2022-09-29T20:19:15.461Z,3.83
2022-09-29T20:21:43.228Z,2.33
2022-09-29T20:24:11.832Z,1.50
2022-09-29T20:26:39.386Z,1.30
2022-09-29T20:29:08.423Z,1.60
2022-09-29T20:31:38.578Z,1.83
2022-09-29T20:34:06.277Z,1.43
2022-09-29T20:36:33.741Z,1.30
2022-09-29T20:39:01.862Z,2.90
2022-09-29T20:41:30.248Z,1.57
2022-09-29T20:43:58.982Z,1.50
2022-09-29T20:46:28.136Z,3.17
2022-09-29T20:48:56.498Z,1.63
2022-09-29T20:51:24.561Z,1.70
2022-09-29T20:53:52.819Z,2.53
2022-09-29T20:56:20.337Z,3.73
2022-09-29T20:58:48.434Z,2.87
2022-09-29T21:01:17.961Z,2.67
2022-09-29T21:03:51.032Z,2.80
2022-09-29T21:06:18.527Z,2.30
2022-09-29T21:08:45.994Z,2.13
2022-09-29T21:11:13.488Z,3.13
2022-09-29T21:13:41.162Z,4.70
2022-09-29T21:16:08.991Z,2.53
2022-09-29T21:18:36.697Z,3.20
2022-09-29T21:21:08.139Z,1.63
2022-09-29T21:23:36.842Z,2.23
2022-09-29T21:26:05.484Z,3.10
2022-09-29T21:28:33.096Z,2.97
2022-09-29T21:31:01.207Z,3.73
2022-09-29T21:33:29.214Z,4.10
2022-09-29T21:35:57.865Z,4.10
2022-09-29T21:38:30.030Z,4.93
2022-09-29T21:41:02.647Z,7.10
2022-09-29T21:43:30.245Z,5.47
2022-09-29T21:46:00.736Z,5.27
2022-09-29T21:48:28.199Z,4.90
2022-09-29T21:51:01.779Z,4.20
2022-09-29T21:53:31.548Z,6.50
2022-09-29T21:56:02.777Z,3.97
2022-09-29T21:58:30.582Z,6.17
2022-09-29T22:00:58.256Z,5.43
2022-09-29T22:03:26.456Z,4.10
2022-09-29T22:05:53.904Z,4.20
2022-09-29T22:08:23.272Z,8.20
2022-09-29T22:10:52.537Z,3.60
2022-09-29T22:13:20.613Z,3.50
2022-09-29T22:15:48.061Z,5.80
2022-09-29T22:18:15.614Z,4.53
2022-09-29T22:20:43.401Z,4.20
2022-09-29T22:23:10.839Z,4.00
2022-09-29T22:25:42.811Z,4.80
2022-09-29T22:28:11.624Z,4.13
2022-09-29T22:30:39.061Z,3.57
2022-09-29T22:33:06.802Z,4.70
2022-09-29T22:35:34.972Z,4.87
2022-09-29T22:38:02.440Z,5.80
2022-09-29T22:40:32.285Z,7.73
2022-09-29T22:42:59.740Z,4.33
2022-09-29T22:45:28.594Z,4.07
2022-09-29T22:47:56.112Z,4.70
2022-09-29T22:50:24.508Z,5.00
2022-09-29T22:52:52.945Z,5.07
2022-09-29T22:55:20.399Z,5.90
2022-09-29T22:57:47.827Z,7.00
2022-09-29T23:00:15.420Z,4.07
2022-09-29T23:02:44.534Z,3.67
2022-09-29T23:05:12.250Z,4.43
2022-09-29T23:07:39.709Z,3.53
2022-09-29T23:10:09.878Z,4.40
2022-09-29T23:12:42.574Z,4.37
2022-09-29T23:15:10.487Z,5.63
2022-09-29T23:17:37.924Z,4.20
2022-09-29T23:20:07.363Z,4.67
2022-09-29T23:22:34.818Z,4.70
2022-09-29T23:25:02.281Z,4.53
2022-09-29T23:27:30.453Z,4.30
2022-09-29T23:29:57.895Z,4.30
2022-09-29T23:32:25.374Z,6.03
2022-09-29T23:34:53.161Z,4.17
2022-09-29T23:37:21.926Z,3.43
2022-09-29T23:39:48.394Z,5.47
2022-09-29T23:42:15.841Z,3.83
2022-09-29T23:44:43.296Z,4.17
2022-09-29T23:47:10.828Z,5.17
2022-09-29T23:49:38.795Z,3.10
2022-09-29T23:52:06.247Z,4.40
2022-09-29T23:54:35.025Z,4.40
2022-09-29T23:57:02.432Z,4.50
2022-09-29T23:59:30.647Z,4.33
